Time;durP1;ratioP1;P1;durP2;ratioP2;P2;SDS_P1;SDS_P2;PMS_P1;PMS_P2;Temp;Humidity;BMP_temperature;BMP_pressure;BME280_temperature;BME280_humidity;BME280_pressure;Samples;Min_cycle;Max_cycle;Signal;HPM_P1;HPM_P2
2022/11/09 00:02:13;;;;;;;5.53;2.70;;;10.80;99.90;;;9.85;100.00;97004.84;5032532;28;20403;-79
2022/11/09 00:04:39;;;;;;;6.43;3.10;;;10.80;99.90;;;9.86;100.00;97001.13;5031534;28;20501;-79
2022/11/09 00:07:05;;;;;;;5.68;2.83;;;10.80;99.90;;;9.95;100.00;97002.22;5032497;28;20407;-79
2022/11/09 00:09:31;;;;;;;5.90;2.90;;;10.80;99.90;;;9.95;100.00;97005.66;5032304;28;20514;-79
2022/11/09 00:12:03;;;;;;;8.37;3.10;;;10.90;99.90;;;9.98;100.00;97001.72;5032545;28;20464;-79
2022/11/09 00:14:29;;;;;;;4.68;2.72;;;10.90;99.90;;;9.97;100.00;97002.78;5031609;28;20875;-79
2022/11/09 00:16:55;;;;;;;5.93;3.00;;;10.90;99.90;;;9.96;100.00;97001.19;5032230;28;20399;-79
2022/11/09 00:19:22;;;;;;;4.65;2.60;;;10.90;99.90;;;10.01;100.00;96991.41;5032185;28;20752;-79
2022/11/09 00:21:48;;;;;;;6.25;2.78;;;10.90;99.90;;;9.99;100.00;96995.41;5047552;28;20476;-79
2022/11/09 00:24:14;;;;;;;4.65;2.70;;;10.90;99.90;;;9.99;100.00;97001.47;5031382;28;20473;-79
2022/11/09 00:26:40;;;;;;;3.80;2.75;;;10.90;99.90;;;10.09;100.00;96992.78;5032079;28;20486;-79
2022/11/09 00:29:07;;;;;;;5.83;2.73;;;11.00;99.90;;;10.06;100.00;96986.19;5031985;28;20470;-79
2022/11/09 00:31:33;;;;;;;5.82;3.00;;;11.00;99.90;;;10.06;100.00;96993.31;5047391;28;20793;-79
2022/11/09 00:33:59;;;;;;;8.17;2.90;;;11.00;99.90;;;10.09;100.00;96990.94;5031081;28;20488;-79
2022/11/09 00:36:27;;;;;;;4.30;2.75;;;11.00;99.90;;;10.09;100.00;96995.44;5031826;28;20503;-79
2022/11/09 00:38:56;;;;;;;6.07;2.80;;;11.00;99.90;;;10.05;100.00;96989.88;5031968;28;20407;-79
2022/11/09 00:41:22;;;;;;;5.32;2.70;;;11.00;99.90;;;10.05;100.00;96989.88;5031891;28;20465;-79
2022/11/09 00:43:49;;;;;;;4.18;2.35;;;11.00;99.90;;;10.00;100.00;96994.31;5028986;28;20430;-79
2022/11/09 00:46:17;;;;;;;5.20;2.63;;;10.90;99.90;;;10.01;100.00;96995.91;5030414;28;20419;-79
2022/11/09 00:48:44;;;;;;;4.57;2.43;;;10.90;99.90;;;9.98;100.00;96984.03;5031790;28;20914;-79
2022/11/09 00:51:10;;;;;;;5.65;2.72;;;10.90;99.90;;;10.03;100.00;96985.88;5031660;28;20399;-79
2022/11/09 00:53:36;;;;;;;7.63;2.83;;;10.90;99.90;;;9.98;100.00;96984.03;5029469;28;20486;-79
2022/11/09 00:56:06;;;;;;;3.83;2.63;;;10.90;99.90;;;10.00;100.00;96976.59;5031605;28;20452;-79
2022/11/09 00:58:35;;;;;;;6.00;2.67;;;10.90;99.90;;;9.99;100.00;96980.31;5030023;28;20789;-79
2022/11/09 01:01:07;;;;;;;7.43;2.93;;;10.90;99.90;;;9.93;100.00;96980.53;5044689;28;20402;-79
2022/11/09 01:03:35;;;;;;;4.35;2.60;;;10.80;99.90;;;9.93;100.00;96976.03;5050339;28;20405;-79
2022/11/09 01:06:01;;;;;;;11.98;3.00;;;10.80;99.90;;;9.89;100.00;96976.81;5051236;28;20489;-79
2022/11/09 01:08:27;;;;;;;5.75;2.72;;;10.80;99.90;;;9.95;100.00;96995.09;5051434;28;20425;-79
2022/11/09 01:10:53;;;;;;;7.65;2.75;;;10.90;99.90;;;9.89;100.00;96990.03;5051276;28;20405;-79
2022/11/09 01:13:19;;;;;;;4.22;2.58;;;10.80;99.90;;;9.91;100.00;96987.94;5050364;28;20402;-79
2022/11/09 01:15:50;;;;;;;4.53;2.67;;;10.80;99.90;;;9.90;100.00;96991.63;5051401;28;20393;-79
2022/11/09 01:18:18;;;;;;;4.57;2.65;;;10.80;99.90;;;9.89;100.00;96982.09;5051010;28;20416;-79
2022/11/09 01:20:48;;;;;;;8.40;3.30;;;10.80;99.90;;;9.88;100.00;96991.09;5050968;28;20767;-79
2022/11/09 01:23:17;;;;;;;4.38;2.72;;;10.80;99.90;;;9.91;100.00;96999.31;5050046;28;20512;-79
2022/11/09 01:25:43;;;;;;;4.03;2.42;;;10.80;99.90;;;9.98;100.00;96989.31;5050851;28;20794;-79
2022/11/09 01:28:11;;;;;;;7.78;2.80;;;10.80;99.90;;;9.94;100.00;96992.69;5050966;28;20488;-79
2022/11/09 01:30:40;;;;;;;6.97;2.50;;;10.90;99.90;;;9.92;100.00;96994.81;5050831;28;20406;-79
2022/11/09 01:33:09;;;;;;;8.10;2.60;;;10.90;99.90;;;10.00;100.00;96996.97;5049918;28;20875;-79
2022/11/09 01:35:38;;;;;;;8.07;2.60;;;10.90;99.90;;;9.96;100.00;96991.41;5050638;28;20405;-79
2022/11/09 01:38:07;;;;;;;4.60;2.67;;;10.90;99.90;;;9.99;100.00;96992.75;5050470;28;20448;-79
2022/11/09 01:40:36;;;;;;;5.20;2.70;;;10.90;99.90;;;10.01;100.00;96994.06;5050594;28;20488;-79
2022/11/09 01:43:13;;;;;;;6.78;2.60;;;10.90;99.90;;;10.02;100.00;96994.88;5049716;28;20875;-79
2022/11/09 01:45:40;;;;;;;7.45;2.40;;;10.90;99.90;;;9.98;100.00;96991.94;5050663;28;20405;-79
2022/11/09 01:48:11;;;;;;;7.50;2.85;;;10.90;99.90;;;9.94;100.00;96985.56;5050373;28;20416;-79
2022/11/09 01:50:43;;;;;;;7.05;2.90;;;10.90;99.90;;;10.22;100.00;96984.44;5050420;28;20443;-79
2022/11/09 01:53:16;;;;;;;5.25;2.70;;;10.90;99.90;;;10.12;100.00;96978.25;5049538;28;20467;-79
2022/11/09 01:55:44;;;;;;;9.13;2.90;;;11.00;99.90;;;10.10;100.00;96979.31;5050256;28;20408;-79
2022/11/09 01:58:15;;;;;;;4.93;2.58;;;11.00;99.90;;;10.14;100.00;96986.75;5065256;22;20684;-74
2022/11/09 02:00:46;;;;;;;4.10;2.38;;;11.00;99.90;;;10.13;100.00;96974.56;5031234;28;20488;-73
2022/11/09 02:03:18;;;;;;;4.38;2.30;;;11.00;99.90;;;10.10;100.00;96986.44;5049549;28;20409;-74
2022/11/09 02:05:44;;;;;;;4.85;2.50;;;11.00;99.90;;;10.10;100.00;96994.38;5050072;28;20496;-74
2022/11/09 02:08:15;;;;;;;4.65;2.30;;;11.00;99.90;;;10.10;100.00;96992.53;5048847;28;20512;-74
2022/11/09 02:10:51;;;;;;;3.75;2.42;;;11.00;99.90;;;10.10;100.00;96989.88;5050122;28;20481;-74
2022/11/09 02:13:21;;;;;;;6.82;2.97;;;11.00;99.90;;;10.11;100.00;96993.31;5049288;28;20492;-74
2022/11/09 02:15:48;;;;;;;4.30;2.50;;;11.00;99.90;;;10.16;100.00;96989.91;5050005;28;20824;-74
2022/11/09 02:18:14;;;;;;;4.75;2.47;;;11.10;99.90;;;10.27;100.00;96992.38;5050258;28;20444;-74
2022/11/09 02:20:50;;;;;;;5.38;2.50;;;11.10;99.90;;;10.31;100.00;96990.78;5048743;28;20788;-74
2022/11/09 02:23:17;;;;;;;5.18;2.80;;;11.20;99.90;;;10.39;100.00;96987.66;5049158;28;20879;-74
2022/11/09 02:25:48;;;;;;;5.60;2.78;;;11.20;99.90;;;10.45;100.00;96988.47;5049974;28;20411;-74
2022/11/09 02:28:15;;;;;;;5.10;2.78;;;11.30;99.90;;;10.64;100.00;96980.84;5049784;28;20835;-74
2022/11/09 02:30:44;;;;;;;3.72;2.30;;;11.50;99.90;;;10.70;100.00;96979.81;5049830;28;20475;-74
2022/11/09 02:33:14;;;;;;;4.70;2.60;;;11.50;99.90;;;10.74;100.00;96983.53;5047926;28;20397;-73
2022/11/09 02:35:48;;;;;;;4.70;2.90;;;11.60;99.90;;;10.76;100.00;96987.50;5034552;28;20424;-74
2022/11/09 02:38:14;;;;;;;4.65;2.67;;;11.60;99.90;;;10.84;100.00;96984.34;5047782;28;20397;-73
2022/11/09 02:40:45;;;;;;;5.32;2.60;;;11.60;99.90;;;11.00;100.00;96998.41;5049724;28;20390;-73
2022/11/09 02:43:13;;;;;;;4.53;2.75;;;11.80;99.90;;;11.06;100.00;97000.00;5049254;28;20410;-72
2022/11/09 02:45:39;;;;;;;5.30;2.80;;;11.90;99.90;;;11.12;100.00;96998.97;5049522;28;20398;-73
2022/11/09 02:48:05;;;;;;;4.20;2.70;;;12.00;99.90;;;11.00;100.00;97002.91;5049610;28;20397;-73
2022/11/09 02:50:32;;;;;;;5.33;3.07;;;11.90;99.90;;;11.13;100.00;96999.72;5049776;28;20409;-72
2022/11/09 02:52:59;;;;;;;5.95;2.90;;;11.90;99.90;;;11.03;100.00;97007.69;5048794;28;20471;-73
2022/11/09 02:55:25;;;;;;;6.63;3.30;;;11.90;99.90;;;11.11;100.00;97020.41;5049597;28;20494;-73
2022/11/09 02:57:50;;;;;;;5.55;3.15;;;11.90;99.90;;;11.10;100.00;97024.13;5049641;28;20988;-73
2022/11/09 03:00:17;;;;;;;8.38;3.20;;;11.90;99.90;;;11.20;100.00;97022.25;5049557;28;20431;-73
2022/11/09 03:02:43;;;;;;;5.18;3.20;;;12.00;99.90;;;11.20;100.00;97024.13;5048850;28;20772;-72
2022/11/09 03:05:09;;;;;;;6.03;3.70;;;12.00;99.90;;;11.09;100.00;97022.53;5049203;28;20483;-73
2022/11/09 03:07:35;;;;;;;4.90;3.35;;;11.90;99.90;;;11.03;100.00;97032.31;5051657;28;20408;-73
2022/11/09 03:10:03;;;;;;;5.70;3.70;;;11.90;99.90;;;11.03;100.00;97044.78;5053305;28;20421;-73
2022/11/09 03:12:29;;;;;;;9.68;3.60;;;11.90;99.90;;;11.13;100.00;97034.97;5053503;28;20408;-73
2022/11/09 03:14:55;;;;;;;7.88;3.50;;;11.90;99.90;;;11.15;100.00;97019.63;5052527;28;20895;-73
2022/11/09 03:17:20;;;;;;;6.88;4.28;;;11.90;99.90;;;10.86;100.00;97031.75;5053171;28;20478;-72
2022/11/09 03:19:46;;;;;;;10.32;4.57;;;11.70;99.90;;;10.60;100.00;97038.78;5053196;28;20401;-73
2022/11/09 03:22:12;;;;;;;10.20;4.40;;;11.50;99.90;;;10.35;100.00;97038.72;5053261;28;20923;-72
2022/11/09 03:24:38;;;;;;;9.10;4.67;;;11.20;99.90;;;10.20;100.00;97039.44;5052274;28;20405;-74
2022/11/09 03:27:05;;;;;;;12.50;5.07;;;11.10;99.90;;;10.07;100.00;97042.50;5053290;28;20431;-73
2022/11/09 03:29:32;;;;;;;9.70;5.07;;;11.00;99.90;;;10.00;100.00;97034.78;5053043;28;20413;-72
2022/11/09 03:31:58;;;;;;;13.85;5.82;;;10.90;99.90;;;9.87;100.00;97035.22;5052999;28;20405;-73
2022/11/09 03:34:24;;;;;;;12.43;6.10;;;10.80;99.90;;;9.82;100.00;97037.06;5052065;28;20435;-73
2022/11/09 03:36:50;;;;;;;13.35;6.10;;;10.70;99.90;;;9.74;100.00;97035.69;5053131;28;20437;-73
2022/11/09 03:39:15;;;;;;;10.73;7.03;;;10.70;99.90;;;9.67;100.00;97040.38;5052952;28;20409;-73
2022/11/09 03:41:41;;;;;;;15.60;7.75;;;10.60;99.90;;;9.60;100.00;97040.59;5052871;28;20441;-74
2022/11/09 03:44:09;;;;;;;19.77;8.20;;;10.60;99.90;;;9.58;100.00;97044.53;5051930;28;20428;-73
2022/11/09 03:46:34;;;;;;;14.10;7.90;;;10.50;99.90;;;9.54;100.00;97043.47;5052690;28;20416;-73
2022/11/09 03:49:00;;;;;;;19.58;8.50;;;10.50;99.90;;;9.55;100.00;97047.69;5052486;28;20421;-73
2022/11/09 03:51:26;;;;;;;19.40;8.63;;;10.50;99.90;;;9.52;100.00;97037.63;5052628;28;20531;-73
2022/11/09 03:53:52;;;;;;;11.77;7.28;;;10.50;99.90;;;9.56;100.00;97042.16;5051877;28;20404;-73
2022/11/09 03:56:18;;;;;;;25.92;9.43;;;10.50;99.90;;;9.56;100.00;97036.84;5052573;28;20401;-73
2022/11/09 03:58:44;;;;;;;24.52;9.82;;;10.50;99.90;;;9.52;100.00;97033.13;5052388;28;20425;-73
2022/11/09 04:01:11;;;;;;;25.65;9.10;;;10.50;99.90;;;9.53;100.00;97034.75;5052512;28;20400;-73
2022/11/09 04:03:37;;;;;;;29.05;10.63;;;10.50;99.90;;;9.51;100.00;97034.19;5051656;28;20406;-73
2022/11/09 04:06:03;;;;;;;24.20;9.90;;;10.50;99.90;;;9.45;100.00;97037.84;5052366;28;20962;-73
2022/11/09 04:08:29;;;;;;;22.95;9.30;;;10.40;99.90;;;9.46;100.00;97036.78;5052352;28;20417;-74
2022/11/09 04:10:55;;;;;;;14.77;8.18;;;10.40;99.90;;;9.49;100.00;97038.13;5052512;28;21039;-74
2022/11/09 04:13:21;;;;;;;23.10;9.07;;;10.50;99.90;;;9.53;100.00;97044.50;5041935;28;20415;-74
2022/11/09 04:15:47;;;;;;;21.38;9.20;;;10.50;99.90;;;9.53;100.00;97039.22;5032218;28;20450;-74
2022/11/09 04:18:16;;;;;;;24.58;9.55;;;10.50;99.90;;;9.53;100.00;97055.88;5031359;28;20435;-73
2022/11/09 04:20:42;;;;;;;20.33;9.27;;;10.50;99.90;;;9.52;100.00;97051.63;5031978;28;20415;-74
2022/11/09 04:23:11;;;;;;;25.70;9.45;;;10.50;99.90;;;9.51;100.00;97060.59;5013668;28;20750;-73
2022/11/09 04:25:39;;;;;;;20.88;8.70;;;10.50;99.90;;;9.54;100.00;97064.59;5032060;28;20419;-73
2022/11/09 04:28:06;;;;;;;29.67;9.63;;;10.50;99.90;;;9.57;100.00;97064.06;5014071;28;20426;-73
2022/11/09 04:30:35;;;;;;;24.00;9.60;;;10.50;99.90;;;9.54;100.00;97068.03;5032052;28;20496;-72
2022/11/09 04:33:02;;;;;;;22.80;9.53;;;10.50;99.90;;;9.55;100.00;97068.81;5031125;28;20814;-73
2022/11/09 04:35:32;;;;;;;33.60;10.05;;;10.50;99.90;;;9.55;100.00;97074.09;5031498;28;20961;-72
2022/11/09 04:38:01;;;;;;;28.38;10.75;;;10.50;99.90;;;9.54;100.00;97075.16;5031982;28;20738;-72
2022/11/09 04:40:30;;;;;;;28.27;9.45;;;10.50;99.90;;;9.53;100.00;97073.56;5031714;28;20403;-72
2022/11/09 04:42:59;;;;;;;38.38;11.45;;;10.50;99.90;;;9.54;100.00;97061.97;5030942;28;20449;-73
2022/11/09 04:45:25;;;;;;;29.45;10.13;;;10.50;99.90;;;9.54;100.00;97056.69;5031688;28;20410;-73
2022/11/09 04:47:55;;;;;;;26.77;9.30;;;10.50;99.90;;;9.56;100.00;97058.00;5031845;28;20488;-73
2022/11/09 04:50:21;;;;;;;29.70;10.25;;;10.50;99.90;;;9.57;100.00;97043.75;5031513;28;20422;-73
2022/11/09 04:52:48;;;;;;;29.00;10.80;;;10.50;99.90;;;9.58;100.00;97053.25;5030819;28;20407;-72
2022/11/09 04:55:14;;;;;;;32.40;11.47;;;10.50;99.90;;;9.56;100.00;97036.84;5031564;28;20407;-73
2022/11/09 04:57:40;;;;;;;35.17;11.20;;;10.50;99.90;;;9.55;100.00;97043.19;5031039;28;20411;-72
2022/11/09 05:00:08;;;;;;;20.20;9.40;;;10.50;99.90;;;9.59;100.00;97032.91;5057992;28;20873;-73
2022/11/09 05:02:34;;;;;;;39.25;12.02;;;10.50;99.90;;;9.59;100.00;97041.66;5053687;28;20702;-73
2022/11/09 05:05:00;;;;;;;19.02;9.43;;;10.50;99.90;;;9.68;100.00;97048.06;5045457;28;20883;-73
2022/11/09 05:07:26;;;;;;;36.13;11.88;;;10.50;99.90;;;9.63;100.00;97040.09;5027378;28;20421;-72
2022/11/09 05:09:53;;;;;;;43.25;14.15;;;10.60;99.90;;;9.61;100.00;97041.41;5049521;28;20421;-74
2022/11/09 05:12:19;;;;;;;46.00;14.77;;;10.60;99.90;;;9.60;100.00;97055.66;5052566;28;20402;-73
2022/11/09 05:14:45;;;;;;;42.95;12.82;;;10.50;99.90;;;9.58;100.00;97047.97;5061859;28;20447;-73
2022/11/09 05:17:11;;;;;;;56.15;13.40;;;10.60;99.90;;;9.58;100.00;97045.34;5067571;28;20754;-73
2022/11/09 05:19:37;;;;;;;32.33;11.97;;;10.60;99.90;;;9.60;100.00;97045.09;5059154;28;20404;-73
2022/11/09 05:25:03;;;;;;;35.55;13.05;;;10.60;99.90;;;9.61;100.00;97041.41;5024770;28;20464;-71
2022/11/09 05:27:28;;;;;;;31.67;12.20;;;10.50;99.90;;;9.60;100.00;97035.31;5057872;28;20403;-73
2022/11/09 05:29:54;;;;;;;34.83;12.07;;;10.60;99.90;;;9.58;100.00;97036.63;5063321;28;20947;-74
2022/11/09 05:32:20;;;;;;;39.08;13.60;;;10.50;99.90;;;9.56;100.00;97039.50;5070623;28;20775;-73
2022/11/09 05:34:46;;;;;;;43.88;13.27;;;10.50;99.90;;;9.57;100.00;97032.38;5069814;28;20558;-74
2022/11/09 05:37:12;;;;;;;31.10;11.93;;;10.50;99.90;;;9.57;100.00;97035.81;5070803;28;21064;-73
2022/11/09 05:39:38;;;;;;;42.88;13.57;;;10.50;99.90;;;9.55;100.00;97029.97;5057792;28;20467;-74
2022/11/09 05:42:05;;;;;;;39.80;13.23;;;10.50;99.90;;;9.56;100.00;97028.13;5062038;28;20571;-73
2022/11/09 05:44:31;;;;;;;28.92;11.55;;;10.50;99.90;;;9.55;100.00;97023.88;5060020;28;20398;-74
2022/11/09 05:46:57;;;;;;;24.17;11.15;;;10.50;99.90;;;9.62;100.00;97024.50;5050450;28;20440;-74
2022/11/09 05:49:23;;;;;;;24.77;11.60;;;10.50;99.90;;;9.71;100.00;97025.59;5049871;28;20424;-72
2022/11/09 05:51:48;;;;;;;38.63;13.38;;;10.60;99.90;;;9.60;100.00;97037.16;5057833;28;20449;-73
2022/11/09 05:54:14;;;;;;;27.60;11.43;;;10.60;99.90;;;9.58;100.00;97024.19;5050545;28;20496;-73
2022/11/09 05:56:40;;;;;;;28.13;11.90;;;10.50;99.90;;;9.68;100.00;97031.41;5043340;28;20403;-73
2022/11/09 05:59:07;;;;;;;32.10;12.18;;;10.60;99.90;;;9.65;100.00;97018.69;5051285;28;20926;-72
2022/11/09 06:01:33;;;;;;;33.28;12.00;;;10.60;99.90;;;9.56;100.00;97028.94;5051351;28;20494;-72
2022/11/09 06:03:59;;;;;;;41.58;14.63;;;10.50;99.90;;;9.51;100.00;97026.25;5047833;28;20850;-73
2022/11/09 06:06:25;;;;;;;35.92;13.35;;;10.50;99.90;;;9.55;100.00;97032.63;5048979;28;20409;-73
2022/11/09 06:08:51;;;;;;;23.23;12.00;;;10.50;99.90;;;9.55;100.00;97037.91;5057169;28;20504;-73
2022/11/09 06:11:17;;;;;;;36.65;13.85;;;10.50;99.90;;;9.55;100.00;97039.75;5050118;28;20401;-73
2022/11/09 06:13:43;;;;;;;19.85;10.93;;;10.50;99.90;;;9.52;100.00;97035.78;5048643;28;20410;-73
2022/11/09 06:16:10;;;;;;;25.50;11.63;;;10.50;99.90;;;9.51;100.00;97054.53;5049927;28;20401;-73
2022/11/09 06:18:36;;;;;;;40.30;13.00;;;10.40;99.90;;;9.55;100.00;97058.25;5049146;28;20912;-72
2022/11/09 06:21:04;;;;;;;27.50;11.82;;;10.50;99.90;;;9.51;100.00;97057.97;5062078;28;21027;-72
2022/11/09 06:23:31;;;;;;;20.48;9.68;;;10.50;99.90;;;9.55;100.00;97076.75;5060734;28;20403;-72
2022/11/09 06:25:58;;;;;;;30.60;12.18;;;10.50;99.90;;;9.50;100.00;97064.28;5070098;28;20704;-71
2022/11/09 06:28:25;;;;;;;29.15;11.95;;;10.40;99.90;;;9.50;100.00;97068.78;5069621;28;20400;-71
2022/11/09 06:30:51;;;;;;;28.85;12.32;;;10.50;99.90;;;9.47;100.00;97069.31;5070027;28;20873;-71
2022/11/09 06:33:18;;;;;;;34.88;12.52;;;10.40;99.90;;;9.46;100.00;97065.84;5068986;28;20541;-71
2022/11/09 06:35:44;;;;;;;36.00;12.95;;;10.40;99.90;;;9.46;100.00;97068.50;5069602;28;20411;-71
2022/11/09 06:38:10;;;;;;;33.50;13.35;;;10.40;99.90;;;9.45;100.00;97063.47;5051706;28;20412;-72
2022/11/09 06:40:36;;;;;;;31.98;12.50;;;10.40;99.90;;;9.45;100.00;97074.81;5069807;28;20490;-71
2022/11/09 06:43:03;;;;;;;32.77;12.83;;;10.40;99.90;;;9.44;100.00;97073.22;5056353;28;20458;-72
2022/11/09 06:45:30;;;;;;;30.77;13.07;;;10.40;99.90;;;9.46;100.00;97068.50;5067345;28;20881;-72
2022/11/09 06:47:56;;;;;;;30.23;11.88;;;10.40;99.90;;;9.48;100.00;97066.38;5069843;28;20436;-71
2022/11/09 06:50:24;;;;;;;31.03;12.43;;;10.40;99.90;;;9.51;100.00;97070.38;5069610;28;20443;-72
2022/11/09 06:52:54;;;;;;;30.90;13.35;;;10.40;99.90;;;9.52;100.00;97083.34;5068777;28;20495;-72
2022/11/09 06:55:20;;;;;;;31.20;13.00;;;10.50;99.90;;;9.54;100.00;97080.47;5051599;28;20766;-71
2022/11/09 06:57:45;;;;;;;27.77;11.27;;;10.50;99.90;;;9.57;100.00;97086.03;5069582;28;20410;-71
2022/11/09 07:00:13;;;;;;;31.13;13.75;;;10.50;99.90;;;9.59;100.00;97085.78;5069311;28;20530;-72
2022/11/09 07:02:41;;;;;;;30.60;12.85;;;10.50;99.90;;;9.61;100.00;97102.97;5068943;28;20403;-72
2022/11/09 07:05:07;;;;;;;28.67;14.40;;;10.60;99.90;;;9.61;100.00;97104.81;5069161;28;20610;-72
2022/11/09 07:07:35;;;;;;;30.60;13.80;;;10.60;99.90;;;9.63;100.00;97110.63;5069653;28;20882;-72
2022/11/09 07:10:00;;;;;;;30.48;14.13;;;10.60;99.90;;;9.64;100.00;97109.59;5069238;28;20411;-71
2022/11/09 07:12:26;;;;;;;26.02;13.27;;;10.60;99.90;;;9.66;100.00;97118.88;5069347;28;20811;-71
2022/11/09 07:14:52;;;;;;;23.38;12.23;;;10.60;99.90;;;9.74;100.00;97149.34;5068516;28;20435;-71
2022/11/09 07:17:18;;;;;;;22.47;9.50;;;10.60;99.90;;;9.80;100.00;97189.81;5069538;28;20501;-71
2022/11/09 07:19:45;;;;;;;23.52;9.15;;;10.70;99.90;;;9.83;100.00;97184.84;5069326;28;20411;-70
2022/11/09 07:22:11;;;;;;;20.98;8.80;;;10.70;99.90;;;9.83;100.00;97182.19;5069402;28;20413;-70
2022/11/09 07:24:38;;;;;;;21.75;8.77;;;10.80;99.90;;;9.90;100.00;97189.91;5068413;28;20412;-72
2022/11/09 07:27:04;;;;;;;29.27;9.38;;;10.80;99.90;;;9.87;100.00;97177.19;5069145;28;20978;-71
2022/11/09 07:29:30;;;;;;;17.02;7.55;;;10.80;99.90;;;9.83;100.00;97176.09;5069053;28;20466;-71
2022/11/09 07:31:56;;;;;;;17.73;7.88;;;10.70;99.90;;;9.78;100.00;97170.75;5069086;28;20709;-71
2022/11/09 07:34:22;;;;;;;16.98;6.72;;;10.70;99.90;;;9.75;100.00;97166.00;5068177;28;20427;-72
2022/11/09 07:36:47;;;;;;;16.87;6.13;;;10.70;99.90;;;9.74;100.00;97161.75;5051786;28;20433;-72
2022/11/09 07:39:13;;;;;;;9.52;5.25;;;10.70;99.90;;;9.70;100.00;97153.50;5048974;28;20447;-71
2022/11/09 07:41:41;;;;;;;13.48;5.78;;;10.70;99.90;;;9.66;100.00;97150.59;5049099;28;20407;-72
2022/11/09 07:44:07;;;;;;;14.73;5.90;;;10.60;99.90;;;9.67;100.00;97160.13;5048288;28;20405;-72
2022/11/09 07:46:34;;;;;;;12.52;6.43;;;10.60;99.90;;;9.70;100.00;97158.78;5049135;28;20803;-71
2022/11/09 07:49:00;;;;;;;15.60;7.03;;;10.60;99.90;;;9.70;100.00;97156.16;5049189;28;20796;-71
2022/11/09 07:51:26;;;;;;;16.20;6.55;;;10.60;99.90;;;9.74;100.00;97156.47;5048983;28;20401;-71
2022/11/09 07:53:52;;;;;;;18.98;7.32;;;10.70;99.90;;;9.81;100.00;97152.56;5050475;28;20820;-71
2022/11/09 07:56:17;;;;;;;19.77;7.65;;;10.70;99.90;;;9.84;100.00;97152.06;5052517;28;20397;-72
2022/11/09 07:58:45;;;;;;;19.17;7.28;;;10.70;99.90;;;9.85;100.00;97148.34;5065914;22;20464;-74
2022/11/09 08:01:11;;;;;;;16.35;7.38;;;10.80;99.90;;;9.88;100.00;97161.09;5052398;28;20420;-75
2022/11/09 08:03:37;;;;;;;17.67;8.50;;;10.80;99.90;;;9.87;100.00;97163.97;5051664;28;20987;-75
2022/11/09 08:06:03;;;;;;;11.32;6.88;;;10.80;99.90;;;9.97;100.00;97170.16;5052333;28;20412;-74
2022/11/09 08:08:29;;;;;;;18.33;7.85;;;10.80;99.90;;;9.97;100.00;97167.50;5051015;28;20405;-75
2022/11/09 08:10:56;;;;;;;15.02;8.13;;;10.90;99.90;;;10.00;100.00;97163.53;5032519;28;20403;-75
2022/11/09 08:13:22;;;;;;;23.05;9.48;;;10.90;99.90;;;9.98;100.00;97168.31;5031527;28;20734;-74
2022/11/09 08:15:49;;;;;;;22.67;9.33;;;10.90;99.90;;;9.97;100.00;97172.00;5032295;28;20445;-74
2022/11/09 08:18:18;;;;;;;22.23;9.20;;;10.90;99.90;;;9.97;100.00;97161.41;5032455;28;20865;-74
2022/11/09 08:20:45;;;;;;;24.15;10.35;;;10.90;99.90;;;9.96;100.00;97173.03;5032251;28;20469;-75
2022/11/09 08:23:12;;;;;;;24.75;9.90;;;10.90;99.90;;;10.01;100.00;97175.72;5031493;28;20450;-74
2022/11/09 08:25:38;;;;;;;24.25;9.50;;;10.90;99.90;;;10.04;100.00;97162.00;5032155;28;20452;-75
2022/11/09 08:28:04;;;;;;;23.75;10.00;;;10.90;99.90;;;9.99;100.00;97160.13;5031916;28;20419;-75
2022/11/09 08:30:30;;;;;;;29.15;10.82;;;10.90;99.90;;;9.98;100.00;97163.03;5030719;28;20419;-75
2022/11/09 08:32:58;;;;;;;28.73;11.23;;;10.90;99.90;;;9.98;100.00;97163.03;5031235;28;20410;-75
2022/11/09 08:35:25;;;;;;;30.17;11.52;;;10.90;99.90;;;9.98;100.00;97166.47;5031220;28;20930;-74
2022/11/09 08:37:53;;;;;;;19.52;9.15;;;10.90;99.90;;;10.04;100.00;97168.09;5031740;28;20488;-75
2022/11/09 08:40:21;;;;;;;22.50;10.02;;;10.90;99.90;;;10.05;100.00;97168.91;5031567;28;20410;-74
2022/11/09 08:42:48;;;;;;;25.20;9.68;;;11.00;99.90;;;10.14;100.00;97171.88;5030985;28;20761;-74
2022/11/09 08:45:15;;;;;;;17.65;8.57;;;11.00;99.90;;;10.17;100.00;97163.41;5031841;28;20410;-74
2022/11/09 08:47:42;;;;;;;18.40;7.73;;;11.00;99.90;;;10.25;100.00;97162.97;5031750;28;20788;-75
2022/11/09 08:50:12;;;;;;;17.17;7.88;;;11.10;99.90;;;10.34;100.00;97159.63;5031555;28;20426;-75
2022/11/09 08:52:38;;;;;;;18.80;7.43;;;11.20;99.90;;;10.31;100.00;97168.03;5031405;28;20407;-74
2022/11/09 08:55:05;;;;;;;19.15;6.55;;;11.20;99.90;;;10.32;100.00;97159.06;5030928;28;20406;-75
2022/11/09 08:57:31;;;;;;;11.67;5.77;;;11.20;99.90;;;10.41;100.00;97156.75;5031710;28;20400;-75
2022/11/09 08:59:57;;;;;;;12.07;5.90;;;11.30;99.90;;;10.35;100.00;97161.22;5031353;28;20499;-74
2022/11/09 09:02:26;;;;;;;11.77;5.25;;;11.20;99.90;;;10.40;100.00;97157.78;5031490;28;20403;-75
2022/11/09 09:04:52;;;;;;;10.88;4.30;;;11.20;99.90;;;10.45;100.00;97155.16;5029772;28;20464;-74
2022/11/09 09:07:19;;;;;;;10.37;5.23;;;11.30;99.90;;;10.53;100.00;97159.19;5031301;28;20419;-74
2022/11/09 09:09:45;;;;;;;8.05;3.85;;;11.40;99.90;;;10.55;100.00;97160.53;5031141;28;20469;-75
2022/11/09 09:12:15;;;;;;;7.53;3.88;;;11.40;99.90;;;10.54;100.00;97152.84;5031255;28;20403;-74
2022/11/09 09:14:43;;;;;;;12.35;4.20;;;11.40;99.90;;;10.48;100.00;97166.06;5030315;28;20993;-74
2022/11/09 09:17:12;;;;;;;9.60;4.20;;;11.40;99.90;;;10.44;100.00;97164.97;5031144;28;20591;-75
2022/11/09 09:19:42;;;;;;;7.03;3.50;;;11.40;99.90;;;10.46;100.00;97162.06;5030601;28;22411;-75
2022/11/09 09:22:08;;;;;;;7.25;3.60;;;11.30;99.90;;;10.48;100.00;97160.75;5031244;28;20423;-74
2022/11/09 09:24:35;;;;;;;7.45;3.45;;;11.40;99.90;;;10.55;100.00;97183.56;5030270;28;20399;-75
2022/11/09 09:27:01;;;;;;;6.50;3.42;;;11.40;99.90;;;10.57;100.00;97182.25;5031101;28;20454;-74
2022/11/09 09:29:27;;;;;;;9.73;3.30;;;11.40;99.90;;;10.60;100.00;97178.31;5030952;28;20422;-74
2022/11/09 09:31:53;;;;;;;5.32;2.80;;;11.50;99.90;;;10.69;100.00;97182.84;5030970;28;20809;-74
2022/11/09 09:34:19;;;;;;;5.32;2.45;;;11.50;99.90;;;10.88;100.00;97185.88;5030057;28;20411;-74
2022/11/09 09:36:45;;;;;;;5.90;2.23;;;11.60;99.90;;;10.78;100.00;97180.50;5030339;28;20438;-74
2022/11/09 09:39:11;;;;;;;8.00;2.40;;;11.70;99.90;;;10.85;100.00;97195.13;5030724;28;20873;-74
2022/11/09 09:41:44;;;;;;;3.33;2.10;;;11.70;99.90;;;10.89;100.00;97197.25;5030777;28;20403;-73
2022/11/09 09:44:22;;;;;;;4.22;2.10;;;11.70;99.90;;;10.88;100.00;97193.00;5028741;28;20438;-74
2022/11/09 09:47:03;;;;;;;3.35;1.92;;;11.80;99.90;;;10.97;100.00;97202.88;5025999;28;20415;-74
2022/11/09 09:49:33;;;;;;;4.03;2.13;;;11.80;99.90;;;11.16;100.00;97198.69;5026328;28;20423;-73
2022/11/09 09:52:05;;;;;;;3.60;1.90;;;12.00;99.90;;;11.21;100.00;97198.72;5030559;28;20438;-74
2022/11/09 09:54:38;;;;;;;7.67;1.80;;;12.10;99.90;;;11.29;100.00;97196.63;5029573;28;20398;-74
2022/11/09 09:57:17;;;;;;;3.33;1.70;;;12.10;99.90;;;11.55;100.00;97198.31;5030573;28;20446;-74
2022/11/09 09:59:48;;;;;;;4.47;1.92;;;12.30;99.90;;;11.57;100.00;97201.50;5030359;28;20414;-74
2022/11/09 10:02:22;;;;;;;6.00;1.97;;;12.40;99.90;;;11.53;100.00;97197.75;5030466;28;20469;-74
2022/11/09 10:04:49;;;;;;;4.68;2.28;;;12.30;99.90;;;11.30;100.00;97201.66;5028631;28;20430;-73
2022/11/09 10:07:25;;;;;;;4.38;2.15;;;12.20;99.90;;;11.34;100.00;97196.66;5030175;28;20904;-74
2022/11/09 10:10:18;;;;;;;4.03;2.20;;;12.20;99.90;;;11.37;100.00;97196.91;5022766;28;20429;-74
2022/11/09 10:13:13;;;;;;;3.20;2.20;;;12.20;99.90;;;11.42;100.00;97198.81;5029617;28;20734;-74
2022/11/09 10:15:48;;;;;;;4.87;2.10;;;12.20;99.90;;;11.45;100.00;97191.13;5029827;28;20439;-74